Time;durP1;ratioP1;P1;durP2;ratioP2;P2;SDS_P1;SDS_P2;PMS_P1;PMS_P2;Temp;Humidity;BMP_temperature;BMP_pressure;BME280_temperature;BME280_humidity;BME280_pressure;Samples;Min_cycle;Max_cycle;Signal;HPM_P1;HPM_P2
2023/01/29 00:01:05;;;;;;;6.88;3.33;;;-0.10;99.90;;;;;;8295249;28;20030;-83
2023/01/29 00:05:06;;;;;;;8.05;4.93;;;-0.10;99.90;;;;;;8295002;28;20026;-84
2023/01/29 00:09:07;;;;;;;4.25;2.22;;;-0.20;99.90;;;;;;8286645;28;20043;-83
2023/01/29 00:13:08;;;;;;;4.43;2.80;;;-0.20;99.90;;;;;;8293823;28;20392;-83
2023/01/29 00:17:09;;;;;;;10.73;2.13;;;-0.30;99.90;;;;;;8291557;28;20030;-83
2023/01/29 00:21:11;;;;;;;5.75;2.53;;;-0.30;99.90;;;;;;8292652;28;20033;-82
2023/01/29 00:25:11;;;;;;;10.15;3.90;;;-0.40;99.90;;;;;;8285341;28;20038;-82
2023/01/29 00:29:12;;;;;;;10.43;4.28;;;-0.40;99.90;;;;;;8285314;28;20378;-82
2023/01/29 00:33:13;;;;;;;2.45;2.17;;;-0.30;99.90;;;;;;8298462;28;20018;-83
2023/01/29 00:37:13;;;;;;;9.82;4.70;;;-0.40;99.90;;;;;;8302522;28;20018;-82
2023/01/29 00:45:37;;;;;;;3.65;2.13;;;-0.50;99.90;;;;;;8282105;28;20077;-83
2023/01/29 00:49:38;;;;;;;2.97;2.38;;;-0.50;99.90;;;;;;8288354;28;20593;-83
2023/01/29 00:53:38;;;;;;;1.77;1.65;;;-0.50;99.90;;;;;;8293336;28;20037;-83
2023/01/29 00:57:39;;;;;;;6.45;4.35;;;-0.50;99.90;;;;;;8281032;28;20026;-84
2023/01/29 01:06:05;;;;;;;5.57;3.72;;;-0.60;99.90;;;;;;8269413;28;20034;-84
2023/01/29 01:10:21;;;;;;;1.85;1.50;;;-0.60;99.90;;;;;;8296758;28;20034;-84
2023/01/29 01:14:22;;;;;;;4.13;2.90;;;-0.60;99.90;;;;;;8297122;28;20030;-83
2023/01/29 01:18:23;;;;;;;1.98;1.60;;;-0.60;99.90;;;;;;8299887;28;20081;-84
2023/01/29 01:22:23;;;;;;;3.75;2.50;;;-0.60;99.90;;;;;;8300303;28;20029;-84
2023/01/29 01:26:24;;;;;;;3.70;2.83;;;-0.60;99.90;;;;;;8292623;28;20036;-84
2023/01/29 01:30:26;;;;;;;9.18;4.45;;;-0.60;99.90;;;;;;8317311;28;20010;-83
2023/01/29 01:34:27;;;;;;;7.45;3.30;;;-0.60;99.90;;;;;;8337602;28;20025;-84
2023/01/29 01:38:27;;;;;;;5.78;2.97;;;-0.70;99.90;;;;;;8329601;28;20025;-83
2023/01/29 01:42:31;;;;;;;4.38;2.63;;;-0.60;99.90;;;;;;8331993;28;20026;-83
2023/01/29 01:46:35;;;;;;;7.03;4.25;;;-0.60;99.90;;;;;;8335120;28;20029;-84
2023/01/29 01:50:43;;;;;;;3.08;2.50;;;-0.60;99.90;;;;;;8341669;28;20018;-84
2023/01/29 01:54:44;;;;;;;3.90;2.35;;;-0.60;99.90;;;;;;8313020;28;20030;-83
2023/01/29 01:58:50;;;;;;;6.38;3.33;;;-0.60;99.90;;;;;;8292483;28;20030;-84
2023/01/29 02:11:33;;;;;;;6.60;2.65;;;-0.70;99.90;;;;;;8300004;28;20079;-84
2023/01/29 02:15:34;;;;;;;4.90;2.95;;;-0.60;99.90;;;;;;8303459;28;20034;-84
2023/01/29 02:19:49;;;;;;;10.05;4.65;;;-0.40;99.90;;;;;;8284938;28;20030;-84
2023/01/29 02:24:10;;;;;;;3.47;2.08;;;-0.70;99.90;;;;;;8298446;28;20049;-84
2023/01/29 02:28:32;;;;;;;8.55;2.45;;;-0.70;99.90;;;;;;8287644;28;20026;-83
2023/01/29 02:32:53;;;;;;;4.72;3.10;;;-0.70;99.90;;;;;;8284149;28;20030;-83
2023/01/29 02:37:03;;;;;;;6.95;3.85;;;-0.70;99.90;;;;;;8282032;28;20097;-83
2023/01/29 02:41:23;;;;;;;4.78;3.70;;;-0.70;99.90;;;;;;8288642;28;20120;-84
2023/01/29 02:45:42;;;;;;;8.93;4.50;;;-0.80;99.90;;;;;;8298470;28;20088;-84
2023/01/29 02:50:05;;;;;;;5.35;2.40;;;-0.70;99.90;;;;;;8279487;28;20035;-84
2023/01/29 02:54:15;;;;;;;5.88;2.70;;;-0.60;99.90;;;;;;8286159;28;20057;-83
2023/01/29 02:58:30;;;;;;;10.15;4.25;;;-0.30;99.90;;;;;;8285932;28;20109;-84
2023/01/29 03:02:49;;;;;;;8.70;5.68;;;-0.70;99.90;;;;;;8295317;28;20066;-84
2023/01/29 03:06:59;;;;;;;9.75;5.78;;;-0.60;99.90;;;;;;8298977;28;20053;-84
2023/01/29 03:11:04;;;;;;;12.18;4.57;;;-0.50;99.90;;;;;;8289092;28;20033;-84
2023/01/29 03:15:11;;;;;;;7.32;4.18;;;-0.60;99.90;;;;;;8288034;28;20022;-84
2023/01/29 03:19:20;;;;;;;9.57;5.25;;;-0.50;99.90;;;;;;8292747;28;20060;-84
2023/01/29 03:32:18;;;;;;;9.67;5.20;;;-0.50;99.90;;;;;;8299707;28;20072;-84
2023/01/29 03:36:36;;;;;;;9.15;3.22;;;-0.50;99.90;;;;;;8300978;28;20029;-84
2023/01/29 03:40:46;;;;;;;11.10;5.47;;;-0.50;99.90;;;;;;8287007;28;20471;-84
2023/01/29 03:45:07;;;;;;;10.95;4.93;;;-0.50;99.90;;;;;;8288452;28;20022;-83
2023/01/29 03:49:39;;;;;;;11.23;5.95;;;-0.40;99.90;;;;;;8283417;28;20022;-84
2023/01/29 03:53:50;;;;;;;7.45;4.38;;;-0.40;99.90;;;;;;8282611;28;20110;-83
2023/01/29 03:58:10;;;;;;;6.50;3.83;;;-0.30;99.90;;;;;;8294617;28;20029;-84
2023/01/29 04:02:20;;;;;;;12.20;6.05;;;-0.40;99.90;;;;;;8291419;28;20034;-84
2023/01/29 04:06:26;;;;;;;14.15;5.50;;;-0.50;99.90;;;;;;8292784;28;20030;-84
2023/01/29 04:10:28;;;;;;;5.10;2.78;;;-0.50;99.90;;;;;;8284197;28;20030;-84
2023/01/29 04:14:31;;;;;;;4.72;2.95;;;-0.60;99.90;;;;;;8276866;28;20030;-84
2023/01/29 04:18:32;;;;;;;8.77;4.07;;;-0.60;99.90;;;;;;8281653;28;20030;-84
2023/01/29 04:22:35;;;;;;;1.67;0.80;;;-0.60;99.90;;;;;;8285051;28;20032;-83
2023/01/29 04:26:50;;;;;;;9.57;6.07;;;-0.70;99.90;;;;;;8283249;28;20029;-84
2023/01/29 04:30:57;;;;;;;5.38;2.78;;;-0.70;99.90;;;;;;8275086;28;20021;-84
2023/01/29 04:35:25;;;;;;;9.73;5.43;;;-0.70;99.90;;;;;;8289847;28;20112;-84
2023/01/29 04:39:30;;;;;;;9.35;4.53;;;-0.70;99.90;;;;;;8282334;28;20034;-84
2023/01/29 04:43:47;;;;;;;7.53;3.88;;;-0.60;99.90;;;;;;8268918;28;20460;-84
2023/01/29 04:48:37;;;;;;;0.52;0.52;;;-0.60;99.90;;;;;;8280503;28;20168;-83
2023/01/29 04:57:55;;;;;;;10.48;5.40;;;-0.70;99.90;;;;;;8285231;28;20033;-84
2023/01/29 05:01:58;;;;;;;3.85;2.50;;;-0.60;99.90;;;;;;8281869;28;20502;-84
2023/01/29 05:06:00;;;;;;;6.55;2.65;;;-0.70;99.90;;;;;;8281560;28;20022;-84
2023/01/29 05:10:04;;;;;;;5.65;3.03;;;-0.80;99.90;;;;;;8289970;28;20027;-83
2023/01/29 05:14:10;;;;;;;2.45;0.85;;;-0.80;99.90;;;;;;8279696;28;20049;-84
2023/01/29 05:18:10;;;;;;;1.38;1.05;;;-0.80;99.90;;;;;;8290284;28;20045;-84
2023/01/29 05:31:36;;;;;;;10.60;5.38;;;-0.70;99.90;;;;;;8290491;28;20068;-84
2023/01/29 05:35:36;;;;;;;7.28;3.22;;;-0.70;99.90;;;;;;8280437;28;20380;-83
2023/01/29 05:39:37;;;;;;;5.10;2.60;;;-0.70;99.90;;;;;;8283378;28;20490;-83
2023/01/29 05:43:38;;;;;;;10.15;5.28;;;-0.70;99.90;;;;;;8287970;28;20033;-83
2023/01/29 05:47:38;;;;;;;7.75;4.55;;;-0.80;99.90;;;;;;8296620;22;20052;-77
2023/01/29 05:51:39;;;;;;;6.30;2.92;;;-0.70;99.90;;;;;;8302766;28;20091;-77
2023/01/29 05:55:42;;;;;;;7.13;2.90;;;-0.80;99.90;;;;;;8306035;28;20021;-77
2023/01/29 05:59:43;;;;;;;9.35;4.93;;;-0.70;99.90;;;;;;8295920;28;20025;-79
2023/01/29 06:03:44;;;;;;;1.23;0.75;;;-0.70;99.90;;;;;;8296457;28;20076;-77
2023/01/29 06:07:45;;;;;;;10.07;5.85;;;-0.70;99.90;;;;;;8318382;28;20551;-77
2023/01/29 06:11:45;;;;;;;8.82;4.25;;;-0.70;99.90;;;;;;8316442;28;20025;-77
2023/01/29 06:15:46;;;;;;;5.80;3.53;;;-0.70;99.90;;;;;;8289750;28;20492;-77
2023/01/29 06:19:46;;;;;;;9.05;3.58;;;-0.60;99.90;;;;;;8291811;28;21049;-76
2023/01/29 06:23:47;;;;;;;8.00;4.53;;;-0.50;99.90;;;;;;8306288;28;20040;-77
2023/01/29 06:27:50;;;;;;;14.57;5.72;;;-0.50;99.90;;;;;;8300820;28;20025;-77
2023/01/29 06:31:50;;;;;;;5.38;2.30;;;-0.40;99.90;;;;;;8294649;28;20033;-77
2023/01/29 06:36:02;;;;;;;10.20;4.80;;;-0.40;99.90;;;;;;8312534;28;20521;-77
2023/01/29 06:40:03;;;;;;;10.70;5.25;;;-0.60;99.90;;;;;;8312726;28;20402;-77
2023/01/29 06:44:04;;;;;;;5.90;3.45;;;-0.50;99.90;;;;;;8296922;28;20112;-77
2023/01/29 06:48:05;;;;;;;12.63;4.55;;;-0.40;99.90;;;;;;8289800;28;20639;-77
2023/01/29 06:52:06;;;;;;;9.35;4.43;;;-0.40;99.90;;;;;;8305367;28;20025;-85
2023/01/29 06:56:07;;;;;;;8.80;3.75;;;-0.40;99.90;;;;;;8292658;28;20026;-85
2023/01/29 07:00:08;;;;;;;8.07;4.30;;;-0.30;99.90;;;;;;8293522;28;20435;-85
2023/01/29 07:04:12;;;;;;;9.95;5.28;;;-0.50;99.90;;;;;;8289453;28;20037;-77
2023/01/29 07:08:13;;;;;;;11.15;5.78;;;-0.50;99.90;;;;;;8286576;28;20021;-78
2023/01/29 07:12:13;;;;;;;9.88;5.35;;;-0.30;99.90;;;;;;8280602;28;20497;-78
2023/01/29 07:16:13;;;;;;;11.27;5.18;;;-0.20;99.90;;;;;;8277252;28;20030;-78
2023/01/29 07:20:14;;;;;;;11.93;5.13;;;-0.20;99.90;;;;;;8275041;28;20054;-78
2023/01/29 07:24:15;;;;;;;11.23;4.35;;;-0.50;99.90;;;;;;8282588;28;20040;-78
2023/01/29 07:28:17;;;;;;;9.65;4.90;;;-0.30;99.90;;;;;;8296210;28;20649;-82
2023/01/29 07:32:17;;;;;;;9.20;4.43;;;-0.20;99.90;;;;;;8284013;28;20042;-79
2023/01/29 07:36:18;;;;;;;5.80;3.35;;;-0.10;99.90;;;;;;8289250;28;20524;-78
2023/01/29 07:40:18;;;;;;;12.10;5.00;;;0.10;99.90;;;;;;8302740;28;20022;-78
2023/01/29 07:44:19;;;;;;;9.48;4.28;;;0.10;99.90;;;;;;8282558;28;20030;-78
2023/01/29 07:48:19;;;;;;;10.25;5.85;;;0.00;99.90;;;;;;8284417;28;20124;-78
2023/01/29 07:52:20;;;;;;;12.20;5.60;;;0.00;99.90;;;;;;8304665;28;20040;-78
2023/01/29 07:56:20;;;;;;;10.90;5.45;;;0.10;99.90;;;;;;8308659;28;20040;-79
2023/01/29 08:00:21;;;;;;;8.65;4.60;;;0.40;99.90;;;;;;8295678;28;20040;-78
2023/01/29 08:04:22;;;;;;;9.82;5.20;;;0.40;99.90;;;;;;8292171;28;20014;-77
2023/01/29 08:08:22;;;;;;;14.05;6.38;;;0.60;99.90;;;;;;8280967;28;20510;-78
2023/01/29 08:12:23;;;;;;;32.13;11.27;;;0.50;99.90;;;;;;8265388;28;20030;-79
2023/01/29 08:16:23;;;;;;;15.18;7.28;;;0.60;99.90;;;;;;8294852;28;20049;-79
2023/01/29 08:20:24;;;;;;;10.30;6.00;;;0.60;99.90;;;;;;8286466;28;20013;-78
2023/01/29 08:24:25;;;;;;;11.13;4.82;;;0.80;99.90;;;;;;8299105;28;20382;-79
2023/01/29 08:28:25;;;;;;;8.95;5.03;;;0.70;99.90;;;;;;8304437;28;20045;-79
2023/01/29 08:32:26;;;;;;;10.48;5.20;;;1.00;99.90;;;;;;8268322;28;20033;-79
2023/01/29 08:36:26;;;;;;;7.18;3.95;;;1.10;99.90;;;;;;8266834;28;20030;-79
2023/01/29 08:40:30;;;;;;;7.15;3.45;;;1.00;99.90;;;;;;8279464;28;20080;-79
2023/01/29 08:44:31;;;;;;;6.35;3.85;;;0.80;99.90;;;;;;8278450;28;20056;-79
2023/01/29 08:48:33;;;;;;;2.78;1.73;;;0.50;99.90;;;;;;8277331;28;20025;-78
2023/01/29 08:52:33;;;;;;;4.28;2.70;;;0.50;99.90;;;;;;8301296;28;20198;-78
2023/01/29 08:56:34;;;;;;;11.43;5.03;;;0.40;99.90;;;;;;8300404;28;20037;-78
2023/01/29 09:00:35;;;;;;;13.07;5.28;;;0.30;99.90;;;;;;8276490;28;20038;-78
2023/01/29 09:04:36;;;;;;;10.00;5.50;;;0.40;99.90;;;;;;8276506;28;20029;-78
2023/01/29 09:08:37;;;;;;;9.85;4.40;;;0.50;99.90;;;;;;8275809;28;20025;-79
2023/01/29 09:12:38;;;;;;;8.38;2.38;;;0.90;99.90;;;;;;8279843;28;20033;-79
2023/01/29 09:16:38;;;;;;;1.08;1.05;;;0.90;99.90;;;;;;8278597;28;20049;-78
2023/01/29 09:20:39;;;;;;;9.02;3.90;;;0.70;99.90;;;;;;8272811;28;20022;-78
2023/01/29 09:24:39;;;;;;;9.30;4.05;;;0.60;99.90;;;;;;8279981;28;20325;-79
2023/01/29 09:28:40;;;;;;;12.50;6.32;;;0.40;99.90;;;;;;8279843;28;20030;-78
2023/01/29 09:32:40;;;;;;;2.20;1.30;;;0.50;99.90;;;;;;8273317;28;20044;-78
2023/01/29 09:36:41;;;;;;;0.30;0.30;;;0.60;99.90;;;;;;8287738;28;20068;-77
2023/01/29 09:40:59;;;;;;;10.60;5.38;;;0.40;99.90;;;;;;8272337;28;20516;-78
2023/01/29 09:45:16;;;;;;;6.60;3.90;;;0.50;99.90;;;;;;8287425;28;20546;-79
2023/01/29 09:49:29;;;;;;;8.50;3.97;;;1.00;99.90;;;;;;8289602;28;20129;-78
2023/01/29 09:54:00;;;;;;;11.45;5.43;;;1.30;99.90;;;;;;8275232;28;20093;-79
2023/01/29 09:58:36;;;;;;;;;;;1.50;99.90;;;;;;8261847;28;20037;-78
2023/01/29 10:02:57;;;;;;;11.10;4.95;;;1.30;99.90;;;;;;8182333;28;19980;-78
2023/01/29 10:07:15;;;;;;;6.18;3.10;;;1.50;99.90;;;;;;8298177;28;20442;-78
2023/01/29 10:11:42;;;;;;;7.18;3.92;;;1.10;99.90;;;;;;8320258;28;20029;-78
2023/01/29 10:16:05;;;;;;;7.50;3.97;;;0.70;99.90;;;;;;8293786;28;20021;-78
2023/01/29 10:20:05;;;;;;;11.75;5.43;;;0.70;99.90;;;;;;8297309;28;20123;-78
2023/01/29 10:24:41;;;;;;;27.23;12.68;;;1.00;99.90;;;;;;8309578;28;20033;-79
2023/01/29 10:28:49;;;;;;;14.18;7.15;;;1.30;99.90;;;;;;8284288;28;20518;-79
2023/01/29 10:32:51;;;;;;;7.40;4.25;;;1.50;99.90;;;;;;8305945;28;20053;-77
2023/01/29 10:36:54;;;;;;;9.73;5.18;;;2.00;99.90;;;;;;8286490;28;20040;-78
2023/01/29 10:41:02;;;;;;;7.32;4.25;;;1.80;99.90;;;;;;8299730;28;20099;-78
2023/01/29 10:45:23;;;;;;;8.63;4.30;;;1.40;99.90;;;;;;8296305;28;20030;-78
2023/01/29 10:49:33;;;;;;;6.50;3.65;;;1.30;99.90;;;;;;8281592;28;20029;-78
2023/01/29 10:53:52;;;;;;;2.17;1.20;;;1.20;99.90;;;;;;8301172;28;20116;-78
2023/01/29 10:58:20;;;;;;;8.52;4.25;;;1.10;99.90;;;;;;8291177;28;20034;-79
2023/01/29 11:02:21;;;;;;;8.73;4.70;;;1.00;99.90;;;;;;8278823;22;20272;-79
2023/01/29 11:06:34;;;;;;;9.82;4.88;;;1.10;99.90;;;;;;8258685;28;20027;-80
2023/01/29 11:10:53;;;;;;;8.55;4.50;;;1.10;99.90;;;;;;8254192;28;20054;-81
2023/01/29 11:15:26;;;;;;;9.93;4.85;;;1.50;99.90;;;;;;8226395;28;20495;-78
2023/01/29 11:19:37;;;;;;;9.15;4.60;;;1.80;99.90;;;;;;8220852;28;20125;-78
2023/01/29 11:23:38;;;;;;;12.93;6.85;;;1.90;99.90;;;;;;8227289;28;20062;-78
2023/01/29 11:27:48;;;;;;;17.17;8.38;;;1.80;99.90;;;;;;8226514;28;20101;-78
2023/01/29 11:31:48;;;;;;;;;;;1.70;99.90;;;;;;8228988;28;20093;-78
2023/01/29 11:35:51;;;;;;;11.57;5.07;;;1.80;99.90;;;;;;8231764;28;20295;-78
2023/01/29 11:39:52;;;;;;;11.40;5.88;;;2.00;99.90;;;;;;8225447;28;20031;-78
2023/01/29 11:43:52;;;;;;;8.70;4.93;;;2.30;99.90;;;;;;8225677;28;20026;-78
2023/01/29 11:47:54;;;;;;;12.05;5.70;;;2.40;99.90;;;;;;8213108;28;20538;-77
2023/01/29 11:51:57;;;;;;;10.30;4.90;;;2.50;99.90;;;;;;8213306;28;20030;-77
2023/01/29 11:55:57;;;;;;;10.07;4.82;;;2.30;99.90;;;;;;8212225;28;20128;-78
2023/01/29 12:00:03;;;;;;;10.73;5.70;;;1.70;99.90;;;;;;8212417;28;20067;-77
2023/01/29 12:04:18;;;;;;;8.82;5.03;;;1.30;99.90;;;;;;8221568;28;20085;-77
2023/01/29 12:08:21;;;;;;;4.25;2.97;;;1.20;99.90;;;;;;8223112;28;20043;-79
2023/01/29 12:12:40;;;;;;;8.85;4.72;;;1.30;99.90;;;;;;8239775;28;20030;-77
2023/01/29 12:17:02;;;;;;;13.40;6.20;;;1.20;99.90;;;;;;8238327;28;20038;-78
2023/01/29 12:21:09;;;;;;;12.63;6.70;;;1.40;99.90;;;;;;8224981;28;20566;-78
2023/01/29 12:25:12;;;;;;;12.30;5.90;;;1.50;99.90;;;;;;8227663;28;20376;-79
2023/01/29 12:29:32;;;;;;;12.48;6.65;;;1.90;99.90;;;;;;8225515;28;20023;-78
2023/01/29 12:34:01;;;;;;;18.70;9.05;;;1.90;99.90;;;;;;8224512;28;20246;-78
2023/01/29 12:38:12;;;;;;;13.23;6.80;;;1.90;99.90;;;;;;8222834;28;20308;-78
2023/01/29 12:42:24;;;;;;;12.45;6.60;;;1.80;99.90;;;;;;8217443;28;20026;-78
2023/01/29 12:46:29;;;;;;;17.10;9.32;;;2.00;99.90;;;;;;8228796;28;20096;-78
2023/01/29 12:50:33;;;;;;;17.83;7.97;;;1.80;99.90;;;;;;8218615;28;20447;-78
2023/01/29 12:54:52;;;;;;;15.90;7.10;;;1.90;99.90;;;;;;8223544;28;20026;-79
2023/01/29 12:58:55;;;;;;;12.10;5.80;;;1.80;99.90;;;;;;8226474;28;20035;-78
2023/01/29 13:03:28;;;;;;;16.17;8.18;;;2.10;99.90;;;;;;8221500;28;20479;-79
2023/01/29 13:07:46;;;;;;;15.30;7.00;;;2.10;99.90;;;;;;8218080;28;20102;-78
2023/01/29 13:11:56;;;;;;;16.00;6.95;;;2.20;99.90;;;;;;8222478;28;20026;-78
2023/01/29 13:15:59;;;;;;;11.80;5.63;;;2.20;99.90;;;;;;8242372;28;20130;-78
2023/01/29 13:20:09;;;;;;;14.95;6.75;;;2.10;99.90;;;;;;8237052;28;20410;-78
2023/01/29 13:24:22;;;;;;;13.95;7.18;;;2.20;99.90;;;;;;8235964;28;20018;-79
2023/01/29 13:28:25;;;;;;;16.35;8.52;;;2.10;99.90;;;;;;8237254;28;20124;-78
2023/01/29 13:32:28;;;;;;;16.52;8.48;;;2.20;99.90;;;;;;8237255;28;20039;-78
2023/01/29 13:36:30;;;;;;;16.63;7.43;;;2.20;99.90;;;;;;8242950;28;20053;-78
2023/01/29 13:40:33;;;;;;;13.55;7.03;;;2.10;99.90;;;;;;8240978;28;20038;-78
2023/01/29 13:44:37;;;;;;;14.18;6.57;;;2.10;99.90;;;;;;8243138;28;20124;-77
2023/01/29 13:48:45;;;;;;;15.98;7.07;;;2.10;99.90;;;;;;8235371;28;20472;-78
2023/01/29 13:52:59;;;;;;;19.70;9.20;;;2.00;99.90;;;;;;8228068;28;21104;-77
2023/01/29 13:57:00;;;;;;;13.85;5.85;;;2.00;99.90;;;;;;8228207;28;20161;-78
2023/01/29 14:01:01;;;;;;;19.65;9.10;;;2.00;99.90;;;;;;8228679;28;20042;-77
2023/01/29 14:05:29;;;;;;;13.15;6.45;;;2.20;99.90;;;;;;8228073;28;20110;-77
2023/01/29 14:09:36;;;;;;;12.32;6.28;;;1.90;99.90;;;;;;8232132;28;20060;-77
2023/01/29 14:13:36;;;;;;;12.20;5.80;;;1.80;99.90;;;;;;8231618;28;20082;-78
2023/01/29 14:17:37;;;;;;;12.95;6.60;;;1.70;99.90;;;;;;8233082;28;20366;-78
2023/01/29 14:21:38;;;;;;;18.27;8.23;;;1.70;99.90;;;;;;8218098;28;20043;-78
2023/01/29 14:25:40;;;;;;;13.30;6.22;;;1.90;99.90;;;;;;8215872;28;20090;-78
2023/01/29 14:29:40;;;;;;;14.40;6.38;;;1.70;99.90;;;;;;8214260;28;20020;-78
2023/01/29 14:33:41;;;;;;;14.68;5.93;;;1.60;99.90;;;;;;8223626;28;20423;-79
2023/01/29 14:37:47;;;;;;;14.15;6.53;;;1.80;99.90;;;;;;8214476;28;20265;-78
2023/01/29 14:41:49;;;;;;;13.45;6.43;;;1.90;99.90;;;;;;8226666;28;20066;-78
2023/01/29 14:45:50;;;;;;;10.90;5.75;;;1.70;99.90;;;;;;8222821;28;20033;-79
2023/01/29 14:49:56;;;;;;;11.68;5.95;;;1.80;99.90;;;;;;8227201;28;20018;-78
2023/01/29 14:54:05;;;;;;;13.05;6.00;;;1.70;99.90;;;;;;8236302;28;20420;-78
2023/01/29 14:58:14;;;;;;;15.63;6.40;;;1.60;99.90;;;;;;8227516;28;20048;-79
2023/01/29 15:02:25;;;;;;;15.02;7.10;;;1.40;99.90;;;;;;8229767;28;20046;-79
2023/01/29 15:06:54;;;;;;;16.08;6.50;;;1.40;99.90;;;;;;8238477;28;20034;-79
2023/01/29 15:15:42;;;;;;;13.25;6.78;;;1.20;99.90;;;;;;8235687;28;20118;-79
2023/01/29 15:19:46;;;;;;;13.70;6.57;;;1.10;99.90;;;;;;8221216;28;20034;-78
2023/01/29 15:24:01;;;;;;;16.02;7.10;;;1.00;99.90;;;;;;8228494;28;20023;-78
2023/01/29 15:28:07;;;;;;;14.63;7.40;;;0.90;99.90;;;;;;8224200;28;20035;-78
2023/01/29 15:32:15;;;;;;;18.02;6.88;;;0.90;99.90;;;;;;8215942;28;20057;-78
2023/01/29 15:36:22;;;;;;;13.52;5.82;;;0.90;99.90;;;;;;8230309;28;20026;-79
2023/01/29 15:40:23;;;;;;;11.88;5.65;;;0.80;99.90;;;;;;8218046;28;20040;-78
2023/01/29 15:44:24;;;;;;;12.45;5.97;;;0.80;99.90;;;;;;8211760;28;20369;-77
2023/01/29 15:48:47;;;;;;;16.13;6.85;;;0.60;99.90;;;;;;8218306;28;20019;-78
2023/01/29 15:52:51;;;;;;;14.48;6.50;;;0.50;99.90;;;;;;8219640;28;20093;-76
2023/01/29 15:56:53;;;;;;;13.55;6.72;;;0.60;99.90;;;;;;8224866;28;20031;-77
2023/01/29 16:00:56;;;;;;;10.68;5.53;;;0.70;99.90;;;;;;8218225;28;20027;-78
2023/01/29 16:04:56;;;;;;;14.82;6.35;;;0.70;99.90;;;;;;8224235;28;20121;-77
2023/01/29 16:08:58;;;;;;;12.82;6.10;;;0.70;99.90;;;;;;8225730;28;20023;-78
2023/01/29 16:12:59;;;;;;;10.98;5.22;;;0.50;99.90;;;;;;8228794;28;20038;-77
2023/01/29 16:17:21;;;;;;;10.07;5.80;;;0.40;99.90;;;;;;8228274;28;20150;-78
2023/01/29 16:21:33;;;;;;;13.23;5.72;;;0.20;99.90;;;;;;8226082;28;20470;-78
2023/01/29 16:25:36;;;;;;;14.10;6.32;;;0.00;99.90;;;;;;8222122;28;20050;-77
2023/01/29 16:29:37;;;;;;;12.55;6.00;;;0.30;99.90;;;;;;8222647;28;20110;-77
2023/01/29 16:33:41;;;;;;;11.85;5.43;;;0.40;99.90;;;;;;8223386;28;20102;-77
2023/01/29 16:37:47;;;;;;;17.73;6.10;;;0.20;99.90;;;;;;8219586;28;20030;-77
2023/01/29 16:42:20;;;;;;;9.90;6.03;;;0.20;99.90;;;;;;8217609;28;20019;-77
2023/01/29 16:46:44;;;;;;;12.05;5.63;;;0.20;99.90;;;;;;8221093;28;20118;-77
2023/01/29 16:50:44;;;;;;;12.77;5.90;;;0.00;99.90;;;;;;8215001;28;20038;-77
2023/01/29 16:54:45;;;;;;;11.00;4.97;;;0.00;99.90;;;;;;8223739;28;20022;-76
2023/01/29 16:58:50;;;;;;;8.77;5.30;;;0.00;99.90;;;;;;8216322;28;20027;-77
2023/01/29 17:02:58;;;;;;;12.57;5.97;;;0.10;99.90;;;;;;8212265;28;20086;-77
2023/01/29 17:07:00;;;;;;;24.95;8.93;;;0.10;99.90;;;;;;8220262;28;20057;-77
2023/01/29 17:11:01;;;;;;;12.40;6.18;;;0.00;99.90;;;;;;8215919;28;20039;-78
2023/01/29 17:15:23;;;;;;;13.77;6.20;;;-0.10;99.90;;;;;;8209607;28;20046;-78
2023/01/29 17:19:24;;;;;;;12.63;6.50;;;0.00;99.90;;;;;;8222440;28;20034;-76
2023/01/29 17:23:25;;;;;;;9.02;5.05;;;0.00;99.90;;;;;;8214357;28;20054;-77
2023/01/29 17:27:25;;;;;;;12.43;4.68;;;-0.10;99.90;;;;;;8219105;28;20042;-76
2023/01/29 17:31:26;;;;;;;13.18;5.38;;;0.00;99.90;;;;;;8221185;28;20470;-77
2023/01/29 17:35:27;;;;;;;9.38;5.10;;;-0.10;99.90;;;;;;8215998;28;20030;-76
2023/01/29 17:39:27;;;;;;;12.57;7.18;;;-0.20;99.90;;;;;;8224391;28;20042;-77
2023/01/29 17:43:28;;;;;;;17.05;7.25;;;-0.10;99.90;;;;;;8285136;22;20115;-79
2023/01/29 17:47:28;;;;;;;10.57;5.55;;;-0.10;99.90;;;;;;8265474;28;20026;-78
2023/01/29 17:51:29;;;;;;;10.52;5.30;;;-0.20;99.90;;;;;;8268140;28;20125;-80
2023/01/29 17:55:29;;;;;;;13.43;4.93;;;-0.20;99.90;;;;;;8291208;28;20026;-79
2023/01/29 17:59:32;;;;;;;12.13;5.75;;;-0.10;99.90;;;;;;8297732;28;20033;-80
2023/01/29 18:03:32;;;;;;;43.53;17.13;;;-0.10;99.90;;;;;;8302636;28;20034;-80
2023/01/29 18:07:37;;;;;;;13.93;7.35;;;-0.30;99.90;;;;;;8285929;28;20029;-79
2023/01/29 18:11:37;;;;;;;14.18;6.72;;;-0.30;99.90;;;;;;8284492;28;20037;-80
2023/01/29 18:15:38;;;;;;;16.48;6.82;;;-0.20;99.90;;;;;;8294981;28;20032;-80
2023/01/29 18:19:39;;;;;;;16.35;7.47;;;-0.10;99.90;;;;;;8292587;28;20029;-80
2023/01/29 18:23:40;;;;;;;15.45;6.85;;;-0.20;99.90;;;;;;8289094;28;20445;-79
2023/01/29 18:27:40;;;;;;;14.15;6.75;;;-0.30;99.90;;;;;;8308392;28;20140;-79
2023/01/29 18:31:41;;;;;;;12.95;6.32;;;-0.30;99.90;;;;;;8295404;28;20032;-79
2023/01/29 18:35:47;;;;;;;13.73;6.55;;;-0.20;99.90;;;;;;8280088;28;20030;-78
2023/01/29 18:39:47;;;;;;;12.00;6.28;;;-0.60;99.90;;;;;;8275057;28;20030;-80
2023/01/29 18:43:48;;;;;;;11.45;5.43;;;-1.20;99.90;;;;;;8298824;28;21023;-79
2023/01/29 18:47:48;;;;;;;14.35;5.63;;;-1.70;99.90;;;;;;8299778;28;20033;-80
2023/01/29 18:51:49;;;;;;;15.20;6.25;;;-1.80;99.90;;;;;;8286544;28;20041;-78
2023/01/29 18:55:59;;;;;;;13.00;6.68;;;-2.10;99.90;;;;;;8276500;28;20029;-80
2023/01/29 19:00:00;;;;;;;11.55;6.20;;;-2.30;99.90;;;;;;8273682;28;20030;-79
2023/01/29 19:04:00;;;;;;;11.15;5.93;;;-2.30;99.90;;;;;;8290912;28;20029;-78
2023/01/29 19:08:01;;;;;;;18.92;6.70;;;-2.30;99.90;;;;;;8263893;28;20032;-77
2023/01/29 19:12:02;;;;;;;12.98;6.28;;;-1.90;99.90;;;;;;8267224;28;20125;-80
2023/01/29 19:16:06;;;;;;;16.60;6.25;;;-1.70;99.90;;;;;;8277070;28;20108;-78
2023/01/29 19:20:08;;;;;;;16.27;6.72;;;-1.60;99.90;;;;;;8279888;28;20026;-79
2023/01/29 19:24:10;;;;;;;15.45;6.88;;;-1.40;99.90;;;;;;8262035;28;20467;-78
2023/01/29 19:28:11;;;;;;;13.65;5.60;;;-1.10;99.90;;;;;;8280108;28;20027;-79
2023/01/29 19:32:11;;;;;;;9.85;5.28;;;-1.00;99.90;;;;;;8303234;28;20022;-79
2023/01/29 19:36:12;;;;;;;13.48;6.18;;;-1.00;99.90;;;;;;8275106;28;20669;-77
2023/01/29 19:40:13;;;;;;;11.60;5.43;;;-0.80;99.90;;;;;;8266575;28;20026;-79
2023/01/29 19:44:14;;;;;;;16.55;6.15;;;-0.70;99.90;;;;;;8261690;28;20112;-78
2023/01/29 19:48:19;;;;;;;10.73;6.00;;;-0.70;99.90;;;;;;8289204;28;20057;-78
2023/01/29 19:52:35;;;;;;;11.20;5.13;;;-0.60;99.90;;;;;;8302385;28;20025;-79
2023/01/29 19:56:35;;;;;;;13.48;6.72;;;-0.60;99.90;;;;;;8277845;28;20513;-79
2023/01/29 20:00:36;;;;;;;11.50;5.57;;;-0.60;99.90;;;;;;8276186;28;20160;-78
2023/01/29 20:04:36;;;;;;;4.53;2.97;;;-0.60;99.90;;;;;;8282988;28;20034;-79
2023/01/29 20:08:37;;;;;;;12.70;5.70;;;-0.60;99.90;;;;;;8281769;28;20112;-80
2023/01/29 20:12:37;;;;;;;12.68;5.93;;;-0.80;99.90;;;;;;8296915;28;20033;-79
2023/01/29 20:16:38;;;;;;;11.23;5.80;;;-0.90;99.90;;;;;;8279473;28;20033;-79
2023/01/29 20:20:43;;;;;;;15.00;7.30;;;-1.00;99.90;;;;;;8279320;28;20101;-79
2023/01/29 20:24:44;;;;;;;12.32;6.13;;;-1.20;99.90;;;;;;8268657;28;20112;-78
2023/01/29 20:28:46;;;;;;;3.40;1.92;;;-1.10;99.90;;;;;;8263674;28;20600;-79
2023/01/29 20:32:47;;;;;;;14.95;5.78;;;-1.20;99.90;;;;;;8269305;28;20026;-78
2023/01/29 20:36:47;;;;;;;11.35;6.40;;;-1.20;99.90;;;;;;8278431;28;20036;-79
2023/01/29 20:40:48;;;;;;;9.73;4.75;;;-1.40;99.90;;;;;;8294759;28;20029;-79
2023/01/29 20:44:49;;;;;;;13.60;7.03;;;-1.40;99.90;;;;;;8297125;28;20740;-78
2023/01/29 20:48:52;;;;;;;13.75;6.75;;;-1.40;99.90;;;;;;8280147;28;20091;-79
2023/01/29 20:52:52;;;;;;;18.88;7.05;;;-1.60;99.90;;;;;;8286775;28;20079;-78
2023/01/29 20:56:53;;;;;;;11.10;5.15;;;-1.80;99.90;;;;;;8271358;28;20030;-79
2023/01/29 21:00:53;;;;;;;12.82;6.53;;;-1.90;99.90;;;;;;8286188;28;20041;-79
2023/01/29 21:04:55;;;;;;;12.35;6.28;;;-1.90;99.90;;;;;;8279654;28;20109;-78
2023/01/29 21:08:56;;;;;;;15.32;5.60;;;-1.90;99.90;;;;;;8266307;28;20065;-78
2023/01/29 21:12:56;;;;;;;15.82;7.80;;;-2.00;99.90;;;;;;8289160;28;20029;-78
2023/01/29 21:16:57;;;;;;;11.45;5.88;;;-2.00;99.90;;;;;;8296408;28;20057;-79
2023/01/29 21:20:57;;;;;;;12.10;6.05;;;-2.10;99.90;;;;;;8300309;28;20075;-77
2023/01/29 21:24:58;;;;;;;8.45;4.28;;;-2.20;99.90;;;;;;8311033;28;20043;-79
2023/01/29 21:28:58;;;;;;;11.98;5.28;;;-2.10;99.90;;;;;;8309114;28;20045;-79
2023/01/29 21:32:59;;;;;;;16.23;5.97;;;-2.20;99.90;;;;;;8299237;28;20022;-79
2023/01/29 21:36:59;;;;;;;9.43;5.40;;;-2.30;99.90;;;;;;8295484;28;20029;-79
2023/01/29 21:41:07;;;;;;;14.85;6.53;;;-2.40;99.90;;;;;;8302353;28;20037;-79
2023/01/29 21:45:08;;;;;;;10.85;5.43;;;-2.50;99.90;;;;;;8311851;28;20018;-79
2023/01/29 21:49:09;;;;;;;13.65;6.15;;;-2.50;99.90;;;;;;8294071;28;20026;-80
2023/01/29 21:53:09;;;;;;;12.20;5.75;;;-2.50;99.90;;;;;;8283152;28;20026;-79
2023/01/29 21:57:13;;;;;;;11.82;6.00;;;-2.60;99.90;;;;;;8266051;28;20511;-78
2023/01/29 22:01:14;;;;;;;7.90;4.45;;;-2.60;99.90;;;;;;8278992;28;20601;-78